Time;durP1;ratioP1;P1;durP2;ratioP2;P2;SDS_P1;SDS_P2;PMS_P1;PMS_P2;Temp;Humidity;BMP_temperature;BMP_pressure;BME280_temperature;BME280_humidity;BME280_pressure;Samples;Min_cycle;Max_cycle;Signal;HPM_P1;HPM_P2
2022/01/11 05:24:25;;;;;;;;;;;;;;;2.57;100.00;98760.06;6235995;22;19977;-66
2022/01/11 05:26:55;;;;;;;;;;;;;;;2.55;100.00;98750.50;6221546;23;19944;-66
2022/01/11 05:29:23;;;;;;;;;;;;;;;2.52;100.00;98757.50;6246996;23;19951;-66
2022/01/11 05:31:51;;;;;;;;;;;;;;;2.48;100.00;98756.56;6221613;23;19949;-66
2022/01/11 05:34:18;;;;;;;;;;;;;;;2.46;100.00;98755.28;6247686;23;19949;-66
2022/01/11 05:36:45;;;;;;;;;;;;;;;2.43;100.00;98769.75;6247633;23;20207;-67
2022/01/11 05:39:13;;;;;;;;;;;;;;;2.41;100.00;98772.03;6221034;23;19976;-67
2022/01/11 05:41:40;;;;;;;;;;;;;;;2.37;100.00;98769.13;6221283;23;20319;-66
2022/01/11 05:44:08;;;;;;;;;;;;;;;2.36;100.00;98777.72;6222497;23;19948;-66
2022/01/11 05:46:35;;;;;;;;;;;;;;;2.37;100.00;98784.88;6221009;23;19953;-66
2022/01/11 05:49:04;;;;;;;;;;;;;;;2.37;100.00;98782.13;6222094;23;19947;-66
2022/01/11 05:51:32;;;;;;;;;;;;;;;2.36;100.00;98786.00;6221516;23;19951;-66
2022/01/11 05:53:59;;;;;;;;;;;;;;;2.37;100.00;98784.88;6220311;23;20385;-66
2022/01/11 05:56:27;;;;;;;;;;;;;;;2.37;100.00;98793.94;6221301;23;19952;-66
2022/01/11 05:58:55;;;;;;;;;;;;;;;2.34;100.00;98793.81;6221287;23;19975;-66
2022/01/11 06:01:23;;;;;;;;;;;;;;;2.35;100.00;98799.00;6220974;23;19980;-66
2022/01/11 06:03:51;;;;;;;;;;;;;;;2.39;100.00;98807.44;6220429;23;19951;-67
2022/01/11 06:06:18;;;;;;;;;;;;;;;2.38;100.00;98806.63;6221040;23;19944;-67
2022/01/11 06:08:48;;;;;;;;;;;;;;;2.40;100.00;98811.78;6247438;23;19946;-67
2022/01/11 06:11:16;;;;;;;;;;;;;;;2.41;100.00;98813.44;6220246;23;19964;-67
2022/01/11 06:13:46;;;;;;;;;;;;;;;2.40;100.00;98815.38;6196709;23;19980;-67
2022/01/11 06:16:14;;;;;;;;;;;;;;;2.43;100.00;98816.66;6220331;23;19956;-68
2022/01/11 06:18:43;;;;;;;;;;;;;;;2.44;100.00;98827.38;6221277;23;20000;-69
2022/01/11 06:21:19;;;;;;;;;;;;;;;2.48;100.00;98827.50;6221039;23;19953;-69
2022/01/11 06:23:47;;;;;;;;;;;;;;;2.60;100.00;98833.13;6221600;23;19968;-68
2022/01/11 06:26:16;;;;;;;;;;;;;;;2.66;100.00;98837.34;6218486;23;19954;-67
2022/01/11 06:28:44;;;;;;;;;;;;;;;2.73;100.00;98837.63;6217377;23;19952;-67
2022/01/11 06:31:11;;;;;;;;;;;;;;;2.72;100.00;98848.97;6219967;23;20054;-67
2022/01/11 06:33:40;;;;;;;;;;;;;;;2.70;100.00;98845.75;6220564;23;19958;-67
2022/01/11 06:36:11;;;;;;;;;;;;;;;2.63;100.00;98849.84;6220321;23;19943;-66
2022/01/11 06:38:40;;;;;;;;;;;;;;;2.61;100.00;98856.84;6221080;23;20008;-66
2022/01/11 06:41:09;;;;;;;;;;;;;;;2.57;100.00;98862.22;6220450;23;19953;-66
2022/01/11 06:43:39;;;;;;;;;;;;;;;2.54;100.00;98873.91;6219675;23;19946;-67
2022/01/11 06:46:06;;;;;;;;;;;;;;;2.51;100.00;98866.31;6220624;23;19961;-67
2022/01/11 06:48:34;;;;;;;;;;;;;;;2.50;100.00;98869.38;6247346;23;19942;-66
2022/01/11 06:51:02;;;;;;;;;;;;;;;2.54;100.00;98878.66;6220214;23;19947;-66
2022/01/11 06:53:38;;;;;;;;;;;;;;;2.61;100.00;98881.69;6220372;23;19943;-66
2022/01/11 06:56:05;;;;;;;;;;;;;;;2.64;100.00;98879.06;6246124;23;19956;-66
2022/01/11 06:58:33;;;;;;;;;;;;;;;2.69;100.00;98875.31;6218838;23;20383;-66
2022/01/11 07:01:00;;;;;;;;;;;;;;;2.74;100.00;98877.09;6219566;23;19946;-66
2022/01/11 07:03:28;;;;;;;;;;;;;;;2.74;100.00;98886.16;6221436;23;19947;-66
2022/01/11 07:06:14;;;;;;;;;;;;;;;2.79;100.00;98880.47;6246717;23;19955;-66
2022/01/11 07:08:41;;;;;;;;;;;;;;;2.85;100.00;98883.84;6220391;23;20325;-66
2022/01/11 07:11:11;;;;;;;;;;;;;;;2.86;100.00;98893.75;6220051;23;19950;-66
2022/01/11 07:13:39;;;;;;;;;;;;;;;2.92;100.00;98896.00;6220438;23;19948;-67
2022/01/11 07:16:07;;;;;;;;;;;;;;;2.97;99.77;98904.09;6220041;23;19954;-67
2022/01/11 07:18:35;;;;;;;;;;;;;;;3.00;100.00;98897.09;6220310;23;19964;-67
2022/01/11 07:21:03;;;;;;;;;;;;;;;3.04;99.77;98907.13;6220003;23;19946;-67
2022/01/11 07:23:32;;;;;;;;;;;;;;;3.13;100.00;98913.41;6216570;23;19972;-67
2022/01/11 07:26:02;;;;;;;;;;;;;;;3.28;100.00;98915.59;6217875;23;19949;-67
2022/01/11 07:28:31;;;;;;;;;;;;;;;3.40;100.00;98919.59;6217915;23;19950;-67
2022/01/11 07:31:01;;;;;;;;;;;;;;;3.57;99.13;98913.94;6220031;23;20215;-67
2022/01/11 07:33:32;;;;;;;;;;;;;;;4.01;97.07;98921.53;6219121;23;19956;-67
2022/01/11 07:35:59;;;;;;;;;;;;;;;5.08;93.87;98927.66;6245416;23;19952;-67
2022/01/11 07:38:28;;;;;;;;;;;;;;;6.44;87.19;98934.16;6195515;23;20313;-67
2022/01/11 07:40:55;;;;;;;;;;;;;;;7.99;76.77;98943.53;6218294;23;20383;-67
2022/01/11 07:43:39;;;;;;;;;;;;;;;10.05;66.82;98943.22;6219429;23;20423;-67
2022/01/11 07:46:23;;;;;;;;;;;;;;;12.20;59.30;98951.66;6229957;23;19935;-67
2022/01/11 07:48:53;;;;;;;;;;;;;;;13.77;51.24;98954.41;6218762;23;19947;-68
2022/01/11 07:51:21;;;;;;;;;;;;;;;15.32;46.68;98967.09;6219143;23;19942;-68
2022/01/11 07:53:51;;;;;;;;;;;;;;;16.44;41.69;98968.88;6219183;23;20276;-68
2022/01/11 07:56:20;;;;;;;;;;;;;;;17.34;38.50;98974.97;6219411;23;19943;-68
2022/01/11 07:58:48;;;;;;;;;;;;;;;17.78;34.80;98977.53;6218865;23;20223;-68
2022/01/11 08:01:18;;;;;;;;;;;;;;;18.33;33.69;98982.63;6220152;23;19937;-68
2022/01/11 08:03:46;;;;;;;;;;;;;;;19.13;30.62;98982.22;6220137;23;20226;-68
2022/01/11 08:06:26;;;;;;;;;;;;;;;19.81;27.77;98987.91;6195185;23;20286;-68
2022/01/11 08:09:08;;;;;;;;;;;;;;;19.60;25.87;98991.28;6218735;23;20230;-68
2022/01/11 08:11:37;;;;;;;;;;;;;;;19.79;25.52;98993.25;6219104;23;19953;-68
2022/01/11 08:14:05;;;;;;;;;;;;;;;21.79;25.21;99005.03;6218925;23;19941;-68
2022/01/11 08:16:35;;;;;;;;;;;;;;;22.39;23.81;99009.50;6218002;23;19948;-68
2022/01/11 08:19:05;;;;;;;;;;;;;;;23.30;22.31;99010.25;6218595;23;19940;-68
2022/01/11 08:21:33;;;;;;;;;;;;;;;24.05;22.19;99006.81;6245355;23;19946;-69
2022/01/11 08:24:01;;;;;;;;;;;;;;;25.06;20.42;99014.28;6217669;23;19973;-71
2022/01/11 08:26:29;;;;;;;;;;;;;;;25.58;19.53;99018.78;6218408;23;19949;-68
2022/01/11 08:28:57;;;;;;;;;;;;;;;24.81;19.73;99026.03;6218855;23;20340;-68
2022/01/11 08:31:25;;;;;;;;;;;;;;;24.00;19.41;99018.06;6218479;23;19953;-69
2022/01/11 08:33:55;;;;;;;;;;;;;;;23.86;20.45;99032.94;6218874;23;19939;-68
2022/01/11 08:36:22;;;;;;;;;;;;;;;22.59;22.10;99024.28;6193954;23;19947;-69
2022/01/11 08:38:50;;;;;;;;;;;;;;;21.53;23.58;99033.50;6218617;23;19942;-68
2022/01/11 08:41:22;;;;;;;;;;;;;;;20.23;24.39;99032.31;6219638;23;19947;-68
2022/01/11 08:43:50;;;;;;;;;;;;;;;19.75;25.83;99025.78;6219131;23;19944;-68
2022/01/11 08:46:19;;;;;;;;;;;;;;;18.96;25.97;99023.88;6218227;23;19941;-68
2022/01/11 08:49:00;;;;;;;;;;;;;;;18.49;26.68;99032.91;6218333;23;20316;-68
2022/01/11 08:51:31;;;;;;;;;;;;;;;18.28;27.48;99031.25;6219601;23;19958;-68
2022/01/11 08:54:02;;;;;;;;;;;;;;;17.35;28.03;99033.94;6218670;23;19943;-68
2022/01/11 08:56:30;;;;;;;;;;;;;;;16.11;29.10;99026.09;6220631;23;19937;-68
2022/01/11 08:58:58;;;;;;;;;;;;;;;14.91;31.26;99024.09;6219489;23;19941;-68
2022/01/11 09:01:31;;;;;;;;;;;;;;;13.59;34.38;99030.31;6219842;23;19952;-68
2022/01/11 09:04:00;;;;;;;;;;;;;;;12.77;35.95;99036.88;6220511;23;19938;-67
2022/01/11 09:06:32;;;;;;;;;;;;;;;12.03;37.80;99041.28;6246007;23;19945;-67
2022/01/11 09:09:17;;;;;;;;;;;;;;;11.53;39.22;99034.44;6246463;23;20123;-67
2022/01/11 09:11:46;;;;;;;;;;;;;;;11.02;41.48;99042.72;6220601;23;19947;-67
2022/01/11 09:14:15;;;;;;;;;;;;;;;10.72;41.78;99039.97;6220374;23;19946;-67
2022/01/11 09:16:43;;;;;;;;;;;;;;;10.31;44.34;99052.19;6220133;23;19947;-67
2022/01/11 09:19:14;;;;;;;;;;;;;;;9.98;46.20;99047.28;6220195;23;19944;-67
2022/01/11 09:21:42;;;;;;;;;;;;;;;9.74;46.11;99053.28;6219901;23;19947;-67
2022/01/11 09:24:11;;;;;;;;;;;;;;;9.70;46.17;99056.03;6219860;23;19967;-68
2022/01/11 09:26:41;;;;;;;;;;;;;;;9.22;48.70;99065.09;6219378;23;19939;-67
2022/01/11 09:29:09;;;;;;;;;;;;;;;9.02;47.06;99075.50;6219258;23;20342;-68
2022/01/11 09:31:37;;;;;;;;;;;;;;;8.87;47.82;99079.19;6220419;23;19944;-68
2022/01/11 09:34:06;;;;;;;;;;;;;;;8.84;49.43;99079.13;6219797;23;19943;-67
2022/01/11 09:36:34;;;;;;;;;;;;;;;8.82;48.77;99081.47;6220143;23;20202;-67
2022/01/11 09:39:02;;;;;;;;;;;;;;;8.74;47.82;99079.69;6219994;23;19954;-67
2022/01/11 09:41:34;;;;;;;;;;;;;;;8.78;48.93;99086.97;6218913;23;19944;-67
2022/01/11 09:44:01;;;;;;;;;;;;;;;8.87;48.65;99084.78;6246330;23;19946;-67
2022/01/11 09:46:31;;;;;;;;;;;;;;;8.63;48.42;99081.47;6219297;23;19949;-67
2022/01/11 09:48:59;;;;;;;;;;;;;;;8.58;49.72;99083.34;6219516;23;20327;-67
2022/01/11 09:51:26;;;;;;;;;;;;;;;8.42;49.14;99085.41;6219817;23;19970;-67
2022/01/11 09:53:56;;;;;;;;;;;;;;;8.54;50.26;99093.63;6219899;23;19951;-67
2022/01/11 09:56:25;;;;;;;;;;;;;;;8.68;50.08;99104.28;6220419;23;19954;-68
2022/01/11 09:58:54;;;;;;;;;;;;;;;8.67;46.38;99099.06;6220899;23;19949;-68
2022/01/11 10:01:40;;;;;;;;;;;;;;;8.53;48.08;99094.00;6246657;23;19954;-67
2022/01/11 10:04:10;;;;;;;;;;;;;;;8.65;46.78;99105.03;6245806;23;19953;-67
2022/01/11 10:07:08;;;;;;;;;;;;;;;8.59;47.98;99101.72;6163702;23;20451;-67
2022/01/11 10:09:43;;;;;;;;;;;;;;;8.66;48.52;99112.19;6230370;23;19964;-68
2022/01/11 10:12:12;;;;;;;;;;;;;;;8.59;49.26;99114.84;6218967;23;19948;-68
2022/01/11 10:14:50;;;;;;;;;;;;;;;8.94;47.38;99112.00;6218607;23;19965;-67
2022/01/11 10:17:27;;;;;;;;;;;;;;;9.04;46.59;99120.59;6219985;23;19949;-67
2022/01/11 10:20:08;;;;;;;;;;;;;;;9.02;46.80;99122.13;6230398;23;19944;-67
2022/01/11 10:22:59;;;;;;;;;;;;;;;9.31;45.29;99110.34;6244000;23;19948;-68
2022/01/11 10:25:40;;;;;;;;;;;;;;;9.33;45.94;99113.56;6220987;23;19953;-68
2022/01/11 10:28:08;;;;;;;;;;;;;;;9.32;45.53;99100.78;6220496;23;19949;-67
2022/01/11 10:30:39;;;;;;;;;;;;;;;9.30;46.56;99113.50;6220553;23;19962;-67
2022/01/11 10:33:09;;;;;;;;;;;;;;;9.19;46.09;99113.31;6221396;23;19950;-67
2022/01/11 10:35:42;;;;;;;;;;;;;;;8.99;46.83;99103.34;6219947;23;20011;-67
2022/01/11 10:38:27;;;;;;;;;;;;;;;9.20;46.62;99109.31;6220393;23;19944;-68
2022/01/11 10:40:58;;;;;;;;;;;;;;;9.32;45.43;99102.78;6219642;23;19960;-67
2022/01/11 10:43:26;;;;;;;;;;;;;;;9.43;45.32;99096.22;6218300;23;19945;-67
2022/01/11 10:45:58;;;;;;;;;;;;;;;9.50;46.51;99103.91;6219643;23;19976;-67
2022/01/11 10:48:28;;;;;;;;;;;;;;;9.60;45.83;99103.31;6219178;23;19958;-68
2022/01/11 10:51:01;;;;;;;;;;;;;;;9.60;47.19;99095.75;6220144;23;20534;-68
2022/01/11 10:53:40;;;;;;;;;;;;;;;9.55;46.74;99098.84;6219987;23;19945;-68
2022/01/11 10:56:10;;;;;;;;;;;;;;;9.48;47.92;99086.72;6219685;23;20223;-67
2022/01/11 10:59:23;;;;;;;;;;;;;;;9.56;46.82;99088.47;6230795;23;19939;-67
2022/01/11 11:01:52;;;;;;;;;;;;;;;9.40;47.66;99083.00;6100129;23;20221;-67
2022/01/11 11:04:29;;;;;;;;;;;;;;;9.38;46.83;99081.75;6123906;23;19987;-67
2022/01/11 11:07:10;;;;;;;;;;;;;;;9.32;47.70;99078.47;6167976;23;19949;-68
2022/01/11 11:09:47;;;;;;;;;;;;;;;9.06;49.47;99083.94;6220512;23;19941;-67
2022/01/11 11:12:16;;;;;;;;;;;;;;;8.98;49.80;99080.22;6219174;23;20294;-67
2022/01/11 11:15:06;;;;;;;;;;;;;;;8.79;50.58;99082.19;6219168;23;19947;-67
2022/01/11 11:17:39;;;;;;;;;;;;;;;8.87;51.08;99083.97;6220245;23;19951;-67
2022/01/11 11:20:26;;;;;;;;;;;;;;;8.87;51.61;99081.19;6245017;23;19945;-67
2022/01/11 11:22:54;;;;;;;;;;;;;;;8.93;51.88;99074.09;6246158;23;20292;-67
2022/01/11 11:25:21;;;;;;;;;;;;;;;8.90;52.66;99091.59;6245815;23;19938;-68
2022/01/11 11:27:49;;;;;;;;;;;;;;;8.75;54.50;99081.31;6246153;23;19981;-67
2022/01/11 11:30:17;;;;;;;;;;;;;;;8.93;53.98;99086.09;6244926;23;19960;-67
2022/01/11 11:32:46;;;;;;;;;;;;;;;8.51;57.07;99080.41;6247357;23;19947;-67
2022/01/11 11:35:15;;;;;;;;;;;;;;;8.33;58.57;99082.03;6245690;23;19948;-67
2022/01/11 11:37:45;;;;;;;;;;;;;;;8.41;60.80;99074.63;6246329;23;19955;-67
2022/01/11 11:40:15;;;;;;;;;;;;;;;8.36;60.81;99072.91;6257054;23;19943;-68
2022/01/11 11:42:44;;;;;;;;;;;;;;;8.42;61.12;99068.69;6245524;23;20298;-67
2022/01/11 11:45:19;;;;;;;;;;;;;;;8.57;60.75;99065.03;6245319;23;20296;-68
2022/01/11 11:47:46;;;;;;;;;;;;;;;8.63;61.22;99062.78;6244951;23;20336;-68
2022/01/11 11:50:19;;;;;;;;;;;;;;;8.68;61.11;99059.66;6245745;23;19969;-68
2022/01/11 11:52:48;;;;;;;;;;;;;;;8.64;61.23;99057.97;6246261;23;20494;-68
2022/01/11 11:55:23;;;;;;;;;;;;;;;8.74;61.58;99052.63;6245533;23;19957;-68
2022/01/11 11:57:54;;;;;;;;;;;;;;;8.75;61.23;99047.88;6219656;23;19945;-67
2022/01/11 12:00:26;;;;;;;;;;;;;;;8.75;62.05;99054.25;6246612;23;19971;-67
2022/01/11 12:02:54;;;;;;;;;;;;;;;8.61;63.71;99053.94;6219681;23;19957;-67
2022/01/11 12:05:32;;;;;;;;;;;;;;;8.70;62.95;99062.09;6246015;23;20223;-68
2022/01/11 12:08:19;;;;;;;;;;;;;;;8.53;62.31;99064.13;6245449;23;19951;-67
2022/01/11 12:10:48;;;;;;;;;;;;;;;8.54;63.34;99060.19;6245713;23;19968;-67
2022/01/11 12:13:34;;;;;;;;;;;;;;;8.44;64.40;99057.16;6245641;23;19940;-67
2022/01/11 12:16:02;;;;;;;;;;;;;;;8.22;66.93;99049.47;6245485;23;19946;-67
2022/01/11 12:18:42;;;;;;;;;;;;;;;8.20;69.86;99049.84;6245317;23;20210;-67
2022/01/11 12:21:10;;;;;;;;;;;;;;;8.27;67.56;99038.06;6219870;23;20175;-68
2022/01/11 12:23:41;;;;;;;;;;;;;;;8.14;67.24;99031.81;6246869;23;19976;-68
2022/01/11 12:26:14;;;;;;;;;;;;;;;7.99;66.14;99029.06;6245628;23;20528;-68
2022/01/11 12:28:42;;;;;;;;;;;;;;;8.20;66.47;99021.16;6245294;23;20191;-68
2022/01/11 12:31:29;;;;;;;;;;;;;;;8.31;67.22;99019.47;6245075;23;19971;-67
2022/01/11 12:33:57;;;;;;;;;;;;;;;8.38;68.38;99026.00;6245540;23;19948;-67
2022/01/11 12:36:43;;;;;;;;;;;;;;;8.34;70.05;99018.72;6246367;23;19943;-67
2022/01/11 12:39:11;;;;;;;;;;;;;;;8.18;69.57;99023.53;6245554;23;19945;-67
2022/01/11 12:41:38;;;;;;;;;;;;;;;8.24;69.21;99020.06;6245945;23;20472;-68
2022/01/11 12:44:18;;;;;;;;;;;;;;;8.06;69.81;99013.31;6245302;23;19940;-68
2022/01/11 12:46:54;;;;;;;;;;;;;;;7.98;68.13;99014.31;6256626;23;19938;-68
2022/01/11 12:49:22;;;;;;;;;;;;;;;7.69;69.86;99018.44;6245610;23;19945;-67
2022/01/11 12:51:52;;;;;;;;;;;;;;;7.80;69.10;99019.47;6246040;23;19965;-67
2022/01/11 12:54:19;;;;;;;;;;;;;;;8.03;70.77;99002.91;6245114;23;19948;-67
2022/01/11 12:56:49;;;;;;;;;;;;;;;8.00;69.66;99003.63;6245514;23;19949;-67
2022/01/11 12:59:17;;;;;;;;;;;;;;;8.06;70.17;99007.75;6245010;23;19949;-67
2022/01/11 13:01:44;;;;;;;;;;;;;;;8.17;72.79;99000.41;6245504;23;19947;-68
2022/01/11 13:04:12;;;;;;;;;;;;;;;8.08;75.20;99002.63;6246648;23;19947;-68
2022/01/11 13:06:39;;;;;;;;;;;;;;;8.06;78.43;98998.59;6245514;23;19957;-68
2022/01/11 13:09:11;;;;;;;;;;;;;;;8.02;74.77;99001.28;6245319;23;19948;-67
2022/01/11 13:11:43;;;;;;;;;;;;;;;7.97;74.54;98991.22;6245625;23;19963;-67
2022/01/11 13:14:45;;;;;;;;;;;;;;;8.04;74.02;98989.78;6245784;23;20299;-67
2022/01/11 13:17:05;;;;;;;;;;;;;;;8.03;74.47;98994.53;6240744;23;20397;-67
2022/01/11 13:19:33;;;;;;;;;;;;;;;8.00;75.43;98989.69;6245415;23;20305;-67
2022/01/11 13:22:02;;;;;;;;;;;;;;;7.71;75.00;98982.69;6219744;23;19943;-67
2022/01/11 13:24:35;;;;;;;;;;;;;;;7.73;74.18;98991.47;6218901;23;19980;-67
2022/01/11 13:27:08;;;;;;;;;;;;;;;7.56;77.74;98986.28;6244652;23;19951;-67
2022/01/11 13:29:36;;;;;;;;;;;;;;;7.50;73.26;98984.97;6245055;23;19950;-68
2022/01/11 13:32:04;;;;;;;;;;;;;;;7.51;73.04;98985.75;6245402;23;20324;-68
2022/01/11 13:34:32;;;;;;;;;;;;;;;7.38;74.37;98981.47;6245480;23;20491;-67
2022/01/11 13:37:00;;;;;;;;;;;;;;;7.27;76.67;98976.47;6245429;23;20350;-67
2022/01/11 13:39:34;;;;;;;;;;;;;;;7.42;75.92;98974.84;6245961;23;19953;-68
2022/01/11 13:42:05;;;;;;;;;;;;;;;7.38;79.70;98976.72;6247192;23;19954;-67
2022/01/11 13:44:35;;;;;;;;;;;;;;;7.34;82.25;98977.78;6247448;23;19948;-67
2022/01/11 13:47:06;;;;;;;;;;;;;;;7.22;85.26;98976.72;6247401;23;19976;-67
2022/01/11 13:49:41;;;;;;;;;;;;;;;7.22;81.72;98976.72;6247129;23;19953;-67
2022/01/11 13:52:16;;;;;;;;;;;;;;;7.19;80.36;98976.63;6247242;23;20335;-67
2022/01/11 13:54:49;;;;;;;;;;;;;;;7.16;79.22;98972.59;6247355;23;19949;-68
2022/01/11 13:57:27;;;;;;;;;;;;;;;7.14;80.76;98974.13;6247225;23;19954;-68
2022/01/11 13:59:58;;;;;;;;;;;;;;;7.14;80.28;98976.94;6246801;23;19951;-67
2022/01/11 14:02:27;;;;;;;;;;;;;;;7.05;81.77;98991.00;6247217;23;20209;-67
2022/01/11 14:04:57;;;;;;;;;;;;;;;6.97;81.91;98989.19;6248220;23;19950;-67
2022/01/11 14:07:27;;;;;;;;;;;;;;;6.89;81.61;98989.38;6247012;23;20420;-67
2022/01/11 14:09:55;;;;;;;;;;;;;;;6.82;81.72;98981.66;6247342;23;19951;-67
2022/01/11 14:12:26;;;;;;;;;;;;;;;6.81;81.14;98988.38;6248228;23;19964;-67
2022/01/11 14:15:15;;;;;;;;;;;;;;;6.72;81.99;98987.72;6247001;23;19952;-68
2022/01/11 14:17:43;;;;;;;;;;;;;;;6.69;82.95;98994.00;6246682;23;19941;-67
2022/01/11 14:20:19;;;;;;;;;;;;;;;6.67;84.00;98993.53;6246648;23;19970;-68
2022/01/11 14:22:48;;;;;;;;;;;;;;;6.67;85.65;98982.44;6247183;23;19942;-67
2022/01/11 14:25:35;;;;;;;;;;;;;;;6.61;85.08;98986.63;6219887;23;20262;-67
2022/01/11 14:28:05;;;;;;;;;;;;;;;6.57;84.77;98992.09;6246595;23;20183;-67
2022/01/11 14:30:43;;;;;;;;;;;;;;;6.53;85.72;98982.00;6248041;23;19940;-67
2022/01/11 14:33:23;;;;;;;;;;;;;;;6.45;85.26;98983.81;6257961;23;19954;-67
2022/01/11 14:36:02;;;;;;;;;;;;;;;6.44;86.43;98981.38;6246843;23;19948;-67
2022/01/11 14:38:35;;;;;;;;;;;;;;;6.36;85.58;98985.91;6246332;23;19959;-67
2022/01/11 14:41:03;;;;;;;;;;;;;;;6.31;84.95;98991.72;6246317;23;19948;-68
2022/01/11 14:43:30;;;;;;;;;;;;;;;6.31;83.95;98997.28;6247805;23;19952;-68
2022/01/11 14:46:17;;;;;;;;;;;;;;;6.23;83.78;98994.66;6245813;23;19946;-68
2022/01/11 14:48:45;;;;;;;;;;;;;;;6.20;82.57;98985.06;6246449;23;19946;-67
2022/01/11 14:51:14;;;;;;;;;;;;;;;6.13;85.78;98990.41;6245259;23;19944;-67
2022/01/11 14:53:47;;;;;;;;;;;;;;;6.15;85.78;98992.81;6246122;23;19940;-67
2022/01/11 14:56:19;;;;;;;;;;;;;;;6.04;90.63;98994.50;6246754;23;19952;-67
2022/01/11 14:58:48;;;;;;;;;;;;;;;5.98;94.15;98993.91;6245925;23;19948;-67
2022/01/11 15:01:23;;;;;;;;;;;;;;;6.06;94.03;98994.94;6245980;23;19944;-67
2022/01/11 15:03:52;;;;;;;;;;;;;;;6.02;96.45;98999.56;6246410;23;19948;-67
2022/01/11 15:06:21;;;;;;;;;;;;;;;5.97;98.98;98997.84;6246578;23;19945;-68
2022/01/11 15:08:53;;;;;;;;;;;;;;;5.91;100.00;99002.84;6245982;23;19951;-68
2022/01/11 15:11:22;;;;;;;;;;;;;;;5.92;100.00;99011.97;6257158;23;19944;-67
2022/01/11 15:14:05;;;;;;;;;;;;;;;5.89;100.00;99018.22;6246307;23;19958;-68
2022/01/11 15:16:32;;;;;;;;;;;;;;;5.85;100.00;99014.50;6245909;23;19946;-67
2022/01/11 15:18:59;;;;;;;;;;;;;;;5.68;100.00;99011.97;6245330;23;19953;-68
2022/01/11 15:21:27;;;;;;;;;;;;;;;5.52;100.00;99008.28;6246992;23;19964;-68
2022/01/11 15:23:54;;;;;;;;;;;;;;;5.39;100.00;99013.03;6246188;23;20607;-68
2022/01/11 15:26:25;;;;;;;;;;;;;;;5.25;100.00;99012.56;6245579;23;19953;-68
2022/01/11 15:28:54;;;;;;;;;;;;;;;5.12;100.00;99020.06;6245705;23;20316;-67
2022/01/11 15:31:22;;;;;;;;;;;;;;;5.04;100.00;99025.69;6246934;23;20278;-68
2022/01/11 15:33:50;;;;;;;;;;;;;;;4.94;100.00;99020.59;6246407;23;20302;-68
2022/01/11 15:36:17;;;;;;;;;;;;;;;4.89;100.00;99018.84;6246444;23;19944;-67
2022/01/11 15:38:45;;;;;;;;;;;;;;;4.85;100.00;99017.09;6245808;23;19955;-67
2022/01/11 15:41:13;;;;;;;;;;;;;;;4.72;100.00;99016.25;6245175;23;19952;-67
2022/01/11 15:43:40;;;;;;;;;;;;;;;4.70;100.00;99020.53;6246721;23;19955;-67
2022/01/11 15:46:08;;;;;;;;;;;;;;;4.59;100.00;99018.19;6245400;23;20200;-67
2022/01/11 15:48:36;;;;;;;;;;;;;;;4.61;100.00;99024.22;6245446;23;19943;-68
2022/01/11 15:51:03;;;;;;;;;;;;;;;4.55;100.00;99021.97;6245734;23;19944;-67
2022/01/11 15:53:31;;;;;;;;;;;;;;;4.63;100.00;99023.84;6245841;23;19973;-67
2022/01/11 15:55:59;;;;;;;;;;;;;;;4.51;100.00;99026.59;6245778;23;19954;-67
2022/01/11 15:58:27;;;;;;;;;;;;;;;4.63;100.00;99024.66;6245632;23;19948;-67
2022/01/11 16:00:54;;;;;;;;;;;;;;;4.58;100.00;99033.19;6245287;23;19954;-67
2022/01/11 16:03:21;;;;;;;;;;;;;;;4.55;100.00;99028.31;6246705;23;19943;-67
2022/01/11 16:05:49;;;;;;;;;;;;;;;4.50;100.00;99028.53;6245459;23;20206;-67
2022/01/11 16:08:16;;;;;;;;;;;;;;;4.53;100.00;99022.31;6245503;23;19944;-67
2022/01/11 16:10:44;;;;;;;;;;;;;;;4.61;100.00;99026.97;6246475;23;19940;-67
2022/01/11 16:13:13;;;;;;;;;;;;;;;4.62;100.00;99025.81;6245461;23;19965;-67
2022/01/11 16:15:43;;;;;;;;;;;;;;;4.58;100.00;99024.88;6245343;23;19960;-67
2022/01/11 16:18:12;;;;;;;;;;;;;;;4.63;100.00;99023.84;6245825;23;19951;-67
2022/01/11 16:20:39;;;;;;;;;;;;;;;4.64;100.00;99023.53;6245891;23;19949;-67
2022/01/11 16:23:07;;;;;;;;;;;;;;;4.57;100.00;99025.22;6246068;23;20200;-67
2022/01/11 16:25:34;;;;;;;;;;;;;;;4.61;100.00;99035.28;6256835;23;19945;-67
2022/01/11 16:28:02;;;;;;;;;;;;;;;4.58;100.00;99035.97;6245928;23;19956;-67
2022/01/11 16:30:31;;;;;;;;;;;;;;;4.54;100.00;99040.56;6246669;23;20344;-67
2022/01/11 16:33:01;;;;;;;;;;;;;;;4.55;100.00;99042.16;6245357;23;19968;-67
2022/01/11 16:35:29;;;;;;;;;;;;;;;4.58;100.00;99055.34;6245685;23;19948;-67
2022/01/11 16:37:57;;;;;;;;;;;;;;;4.53;100.00;99052.78;6245272;23;19947;-67
2022/01/11 16:43:07;;;;;;;;;;;;;;;4.41;100.00;99063.81;6246517;23;19948;-67
2022/01/11 16:45:35;;;;;;;;;;;;;;;4.41;100.00;99054.69;6245996;23;19947;-67
2022/01/11 16:48:03;;;;;;;;;;;;;;;4.38;100.00;99064.47;6246573;23;20335;-67
2022/01/11 16:50:30;;;;;;;;;;;;;;;4.41;100.00;99069.34;6245690;23;19947;-68
2022/01/11 16:52:58;;;;;;;;;;;;;;;4.52;100.00;99072.53;6245513;23;20351;-71
2022/01/11 16:55:25;;;;;;;;;;;;;;;4.45;100.00;99067.50;6245363;23;19954;-68
2022/01/11 16:57:53;;;;;;;;;;;;;;;4.41;100.00;99079.59;6246089;23;20205;-66
2022/01/11 17:00:22;;;;;;;;;;;;;;;4.43;100.00;99071.75;6247355;23;20400;-73
2022/01/11 17:02:49;;;;;;;;;;;;;;;4.39;100.00;99071.66;6247145;23;19949;-68
2022/01/11 17:05:17;;;;;;;;;;;;;;;4.39;100.00;99079.13;6246342;23;19953;-69
2022/01/11 17:07:44;;;;;;;;;;;;;;;4.34;100.00;99085.69;6246650;23;19946;-69
2022/01/11 17:10:13;;;;;;;;;;;;;;;4.31;100.00;99086.38;6247459;23;19950;-68
2022/01/11 17:12:40;;;;;;;;;;;;;;;4.32;100.00;99092.72;6246918;23;19972;-67
2022/01/11 17:15:08;;;;;;;;;;;;;;;4.34;100.00;99091.22;6248146;23;19954;-67
2022/01/11 17:17:36;;;;;;;;;;;;;;;4.33;100.00;99097.09;6248208;23;19949;-66
2022/01/11 17:20:04;;;;;;;;;;;;;;;4.35;100.00;99101.13;6248303;23;19940;-67
2022/01/11 17:22:32;;;;;;;;;;;;;;;4.32;100.00;99101.84;6249617;23;19950;-67
2022/01/11 17:24:59;;;;;;;;;;;;;;;4.32;100.00;99103.78;6248262;23;19978;-67
2022/01/11 17:27:27;;;;;;;;;;;;;;;4.26;100.00;99116.19;6247747;23;19956;-67
2022/01/11 17:29:54;;;;;;;;;;;;;;;4.17;100.00;99112.69;6248654;23;20293;-67
2022/01/11 17:32:22;;;;;;;;;;;;;;;4.12;100.00;99115.66;6248547;23;19960;-67
2022/01/11 17:34:51;;;;;;;;;;;;;;;4.03;100.00;99117.66;6248285;23;19946;-67
2022/01/11 17:37:20;;;;;;;;;;;;;;;4.01;100.00;99120.75;6247845;23;20346;-68
2022/01/11 17:39:48;;;;;;;;;;;;;;;3.95;100.00;99124.88;6247693;23;19957;-68
2022/01/11 17:42:16;;;;;;;;;;;;;;;3.93;100.00;99125.22;6248091;23;19944;-68
2022/01/11 17:44:43;;;;;;;;;;;;;;;3.91;100.00;99132.22;6248569;23;19945;-68
2022/01/11 17:47:11;;;;;;;;;;;;;;;3.94;100.00;99126.00;6248021;23;19950;-68
2022/01/11 17:49:38;;;;;;;;;;;;;;;4.09;97.88;99130.97;6248499;23;19955;-68
2022/01/11 17:52:06;;;;;;;;;;;;;;;4.33;91.86;99144.97;6248417;23;19952;-68
2022/01/11 17:54:33;;;;;;;;;;;;;;;4.30;91.97;99153.97;6248044;23;19979;-69
2022/01/11 17:57:04;;;;;;;;;;;;;;;4.41;89.42;99157.94;6248133;23;20187;-68
2022/01/11 17:59:32;;;;;;;;;;;;;;;4.43;88.73;99160.38;6259256;23;19950;-68
2022/01/11 18:02:02;;;;;;;;;;;;;;;4.41;88.33;99174.56;6249143;23;19949;-68
2022/01/11 18:04:30;;;;;;;;;;;;;;;4.43;88.30;99172.28;6247654;23;19951;-68
2022/01/11 18:06:58;;;;;;;;;;;;;;;4.38;88.55;99175.22;6247225;23;19950;-68
2022/01/11 18:09:26;;;;;;;;;;;;;;;4.37;89.70;99184.72;6247821;23;20334;-68
2022/01/11 18:11:55;;;;;;;;;;;;;;;4.34;89.92;99192.84;6248751;23;19939;-68
2022/01/11 18:14:23;;;;;;;;;;;;;;;4.24;90.46;99194.06;6247580;23;20045;-67
2022/01/11 18:16:51;;;;;;;;;;;;;;;4.23;90.77;99197.97;6248912;23;19947;-67
2022/01/11 18:19:19;;;;;;;;;;;;;;;4.20;92.99;99200.59;6246779;23;19947;-68
2022/01/11 18:21:48;;;;;;;;;;;;;;;4.07;94.31;99205.22;6247488;23;20011;-68
2022/01/11 18:24:15;;;;;;;;;;;;;;;4.06;94.62;99203.59;6220962;23;19975;-67
2022/01/11 18:26:42;;;;;;;;;;;;;;;4.07;93.48;99209.94;6246376;23;20006;-68
2022/01/11 18:29:10;;;;;;;;;;;;;;;4.12;89.97;99205.03;6247728;23;19954;-68
2022/01/11 18:31:37;;;;;;;;;;;;;;;4.13;89.40;99223.28;6247785;23;19976;-68
2022/01/11 18:34:05;;;;;;;;;;;;;;;4.08;88.89;99226.22;6246451;23;19982;-68
2022/01/11 18:36:33;;;;;;;;;;;;;;;4.14;87.52;99221.28;6247074;23;19950;-68